createdAt,value
2018-01-22T00:00:10.140Z,95.77
2018-01-22T00:02:36.099Z,95.78
2018-01-22T00:05:02.256Z,95.96
2018-01-22T00:07:28.329Z,95.89
2018-01-22T00:09:54.388Z,95.66
2018-01-22T00:12:20.388Z,95.23
2018-01-22T00:14:46.415Z,94.89
2018-01-22T00:17:12.453Z,94.91
2018-01-22T00:19:38.477Z,95.07
2018-01-22T00:22:04.537Z,95.30
2018-01-22T00:24:30.564Z,95.03
2018-01-22T00:26:56.585Z,94.91
2018-01-22T00:29:22.561Z,95.09
2018-01-22T00:31:48.557Z,95.26
2018-01-22T00:34:14.604Z,95.44
2018-01-22T00:36:40.692Z,95.27
2018-01-22T00:39:06.740Z,94.77
2018-01-22T00:41:32.769Z,94.45
2018-01-22T00:43:58.765Z,94.30
2018-01-22T00:46:24.880Z,94.56
2018-01-22T00:48:50.885Z,94.46
2018-01-22T00:51:16.928Z,94.48
2018-01-22T00:53:42.955Z,94.44
2018-01-22T00:56:08.988Z,94.35
2018-01-22T00:58:35.016Z,94.31
2018-01-22T01:01:01.033Z,94.63
2018-01-22T01:03:27.058Z,95.05
2018-01-22T01:05:53.056Z,95.13
2018-01-22T01:08:19.017Z,95.23
2018-01-22T01:10:45.062Z,95.10
2018-01-22T01:13:11.112Z,95.13
2018-01-22T01:15:37.134Z,94.79
2018-01-22T01:18:03.088Z,95.01
2018-01-22T01:20:29.112Z,95.42
2018-01-22T01:22:55.156Z,94.93
2018-01-22T01:25:21.216Z,94.52
2018-01-22T01:27:47.299Z,94.41
2018-01-22T01:30:13.376Z,94.50
2018-01-22T01:32:39.380Z,94.65
2018-01-22T01:35:05.392Z,94.65
2018-01-22T01:37:31.438Z,95.05
2018-01-22T01:39:57.392Z,95.10
2018-01-22T01:42:23.451Z,95.38
2018-01-22T01:44:49.424Z,95.25
2018-01-22T01:47:15.481Z,95.09
2018-01-22T01:49:41.524Z,95.09
2018-01-22T01:52:07.596Z,95.03
2018-01-22T01:54:33.584Z,95.06
2018-01-22T01:56:59.608Z,95.04
2018-01-22T01:59:25.596Z,94.90
2018-01-22T02:01:51.612Z,94.69
2018-01-22T02:04:17.637Z,94.40
2018-01-22T02:06:43.696Z,94.99
2018-01-22T02:09:09.724Z,95.32
2018-01-22T02:11:35.731Z,95.00
2018-01-22T02:14:01.848Z,94.96
2018-01-22T02:16:34.936Z,94.99
2018-01-22T02:19:00.956Z,95.06
2018-01-22T02:21:26.976Z,95.04
2018-01-22T02:23:52.980Z,95.60
2018-01-22T02:26:18.980Z,95.54
2018-01-22T02:28:45.013Z,95.35
2018-01-22T02:31:11.043Z,95.32
2018-01-22T02:33:37.081Z,95.46
2018-01-22T02:36:03.060Z,95.14
2018-01-22T02:38:29.145Z,94.92
2018-01-22T02:40:55.172Z,94.96
2018-01-22T02:43:21.199Z,95.03
2018-01-22T02:45:47.252Z,95.14
2018-01-22T02:48:13.333Z,94.73
2018-01-22T02:50:39.356Z,95.23
2018-01-22T02:53:05.401Z,94.87
2018-01-22T02:55:31.376Z,94.66
2018-01-22T02:57:57.428Z,94.54
2018-01-22T03:00:23.488Z,94.98
2018-01-22T03:02:49.868Z,94.67
2018-01-22T03:05:15.979Z,94.65
2018-01-22T03:07:42.017Z,94.38
2018-01-22T03:10:08.016Z,94.38
2018-01-22T03:12:34.061Z,94.52
2018-01-22T03:15:00.129Z,94.71
2018-01-22T03:17:26.185Z,94.37
2018-01-22T03:19:52.722Z,94.39
2018-01-22T03:22:18.744Z,93.86
2018-01-22T03:24:44.744Z,93.83
2018-01-22T03:27:10.776Z,94.00
2018-01-22T03:29:36.789Z,94.26
2018-01-22T03:32:02.791Z,94.49
2018-01-22T03:34:28.793Z,94.44
2018-01-22T03:36:54.920Z,94.37
2018-01-22T03:39:20.937Z,94.25
2018-01-22T03:41:46.929Z,94.43
2018-01-22T03:44:13.005Z,94.09
2018-01-22T03:46:39.036Z,94.24
2018-01-22T03:49:05.132Z,94.52
2018-01-22T03:51:31.141Z,94.72
2018-01-22T03:53:57.189Z,95.13
2018-01-22T03:56:23.216Z,95.10
2018-01-22T03:58:49.147Z,94.74
2018-01-22T04:01:15.129Z,94.74
2018-01-22T04:03:41.159Z,94.97
2018-01-22T04:06:07.168Z,94.84
2018-01-22T04:08:33.199Z,94.87
2018-01-22T04:10:59.204Z,94.62
2018-01-22T04:13:25.228Z,93.80
2018-01-22T04:15:51.231Z,94.05
2018-01-22T04:18:17.276Z,94.08
2018-01-22T04:20:43.336Z,93.68
2018-01-22T04:23:09.324Z,93.92
2018-01-22T04:25:35.374Z,94.25
2018-01-22T04:28:01.396Z,94.20
2018-01-22T04:30:27.451Z,94.17
2018-01-22T04:32:53.509Z,94.10
2018-01-22T04:35:19.551Z,94.13
2018-01-22T04:37:45.643Z,94.37
2018-01-22T04:40:11.693Z,94.22
2018-01-22T04:42:37.714Z,93.86
2018-01-22T04:45:04.366Z,93.47
2018-01-22T04:47:30.372Z,93.69
2018-01-22T04:49:56.400Z,93.59
2018-01-22T04:52:29.352Z,93.92
2018-01-22T04:54:55.384Z,93.84
2018-01-22T04:57:21.384Z,93.41
2018-01-22T04:59:47.457Z,93.30
2018-01-22T05:02:13.468Z,93.45
2018-01-22T05:04:39.532Z,93.50
2018-01-22T05:07:05.548Z,93.58
2018-01-22T05:09:31.660Z,93.25
2018-01-22T05:11:57.687Z,93.23
2018-01-22T05:14:23.697Z,92.98
2018-01-22T05:16:49.721Z,92.86
2018-01-22T05:19:15.737Z,93.50
2018-01-22T05:21:41.747Z,93.35
2018-01-22T05:24:07.766Z,93.15
2018-01-22T05:26:33.857Z,93.11
2018-01-22T05:28:59.892Z,93.13
2018-01-22T05:31:25.902Z,93.44
2018-01-22T05:33:51.936Z,92.95
2018-01-22T05:36:17.950Z,93.21
2018-01-22T05:38:44.072Z,93.33
2018-01-22T05:41:10.084Z,93.33
2018-01-22T05:43:36.105Z,93.50
2018-01-22T05:46:02.147Z,93.14
2018-01-22T05:48:28.173Z,93.33
2018-01-22T05:50:54.207Z,93.65
2018-01-22T05:53:20.224Z,93.39
2018-01-22T05:55:46.299Z,93.52
2018-01-22T05:58:12.371Z,93.47
2018-01-22T06:00:38.380Z,93.89
2018-01-22T06:03:04.383Z,93.79
2018-01-22T06:05:30.403Z,93.68
2018-01-22T06:07:56.597Z,93.77
2018-01-22T06:10:22.629Z,93.66
2018-01-22T06:12:48.632Z,93.74
2018-01-22T06:15:14.748Z,93.96
2018-01-22T06:17:40.824Z,94.14
2018-01-22T06:20:06.900Z,94.06
2018-01-22T06:22:32.921Z,93.44
2018-01-22T06:24:58.969Z,93.36
2018-01-22T06:27:25.012Z,93.27
2018-01-22T06:29:51.012Z,93.27
2018-01-22T06:32:17.071Z,93.28
2018-01-22T06:34:43.096Z,93.03
2018-01-22T06:37:09.164Z,93.42
2018-01-22T06:39:35.220Z,93.33
2018-01-22T06:42:01.196Z,93.62
2018-01-22T06:44:27.221Z,93.57
2018-01-22T06:46:53.234Z,93.88
2018-01-22T06:49:19.261Z,93.26
2018-01-22T06:51:45.389Z,92.74
2018-01-22T06:54:11.417Z,92.72
2018-01-22T06:56:37.427Z,92.78
2018-01-22T06:59:03.466Z,93.33
2018-01-22T07:01:29.516Z,92.83
2018-01-22T07:03:55.488Z,93.04
2018-01-22T07:06:21.625Z,93.22
2018-01-22T07:08:47.729Z,92.70
2018-01-22T07:11:13.741Z,92.48
2018-01-22T07:13:39.756Z,92.54
2018-01-22T07:16:05.811Z,92.64
2018-01-22T07:18:31.795Z,92.88
2018-01-22T07:20:57.820Z,92.53
2018-01-22T07:23:23.888Z,91.80
2018-01-22T07:25:50.000Z,91.76
2018-01-22T07:28:16.006Z,91.81
2018-01-22T07:30:42.026Z,91.96
2018-01-22T07:33:08.063Z,91.41
2018-01-22T07:35:34.087Z,91.30
2018-01-22T07:38:00.136Z,90.85
2018-01-22T07:40:26.161Z,91.24
2018-01-22T07:42:52.167Z,90.63
2018-01-22T07:45:18.335Z,90.34
2018-01-22T07:47:44.390Z,90.42
2018-01-22T07:50:10.483Z,90.61
2018-01-22T07:52:36.620Z,90.63
2018-01-22T07:55:02.785Z,90.89
2018-01-22T07:57:28.948Z,90.61
2018-01-22T07:59:55.014Z,89.68
2018-01-22T08:02:21.032Z,90.21
2018-01-22T08:04:47.028Z,90.69
2018-01-22T08:07:13.111Z,90.30
2018-01-22T08:09:39.160Z,90.30
2018-01-22T08:12:05.180Z,90.03
2018-01-22T08:14:31.183Z,90.12
2018-01-22T08:16:57.181Z,90.20
2018-01-22T08:19:23.184Z,90.56
2018-01-22T08:21:49.193Z,90.55
2018-01-22T08:24:15.173Z,90.67
2018-01-22T08:26:41.241Z,90.97
2018-01-22T08:29:07.265Z,91.52
2018-01-22T08:31:33.264Z,91.40
2018-01-22T08:33:59.712Z,91.27
2018-01-22T08:36:25.733Z,91.16
2018-01-22T08:38:51.749Z,90.99
2018-01-22T08:41:18.649Z,90.55
2018-01-22T08:43:44.695Z,90.54
2018-01-22T08:46:10.764Z,91.13
2018-01-22T08:48:36.772Z,91.00
2018-01-22T08:51:02.849Z,91.45
2018-01-22T08:53:28.797Z,91.96
2018-01-22T08:55:54.840Z,91.51
2018-01-22T08:58:20.862Z,91.73
2018-01-22T09:00:46.920Z,91.47
2018-01-22T09:03:12.992Z,91.25
2018-01-22T09:05:39.007Z,90.71
2018-01-22T09:08:05.056Z,90.72
2018-01-22T09:10:31.104Z,91.25
2018-01-22T09:12:57.116Z,90.51
2018-01-22T09:15:23.134Z,91.14
2018-01-22T09:17:49.161Z,91.07
2018-01-22T09:20:15.188Z,90.49
2018-01-22T09:22:41.263Z,90.59
2018-01-22T09:25:07.244Z,90.64
2018-01-22T09:27:33.215Z,90.30
2018-01-22T09:29:59.284Z,90.37
2018-01-22T09:32:25.352Z,89.46
2018-01-22T09:35:08.010Z,89.89
2018-01-22T09:37:34.146Z,90.04
2018-01-22T09:40:00.204Z,89.96
2018-01-22T09:42:26.294Z,90.32
2018-01-22T09:44:52.309Z,90.17
2018-01-22T09:47:18.281Z,90.62
2018-01-22T09:49:44.301Z,90.76
2018-01-22T09:52:10.251Z,90.10
2018-01-22T09:54:36.260Z,89.62
2018-01-22T09:57:02.287Z,89.64
2018-01-22T09:59:28.319Z,89.58
2018-01-22T10:02:10.293Z,89.17
2018-01-22T10:04:36.468Z,89.53
2018-01-22T10:07:02.529Z,89.21
2018-01-22T10:09:28.545Z,89.05
2018-01-22T10:11:54.564Z,88.92
2018-01-22T10:14:20.717Z,88.89
2018-01-22T10:16:46.739Z,88.81
2018-01-22T10:19:12.848Z,88.47
2018-01-22T10:21:38.921Z,88.55
2018-01-22T10:24:04.928Z,89.01
2018-01-22T10:26:31.014Z,88.98
2018-01-22T10:28:57.076Z,88.54
2018-01-22T10:31:23.076Z,88.39
2018-01-22T10:33:49.157Z,88.39
2018-01-22T10:36:15.135Z,88.47
2018-01-22T10:38:41.149Z,88.87
2018-01-22T10:41:07.234Z,88.83
2018-01-22T10:43:33.252Z,89.21
2018-01-22T10:45:59.280Z,88.97
2018-01-22T10:48:25.280Z,89.27
2018-01-22T10:50:51.292Z,89.96
2018-01-22T10:53:17.336Z,90.38
2018-01-22T10:55:43.324Z,90.03
2018-01-22T10:58:09.359Z,89.47
2018-01-22T11:00:35.379Z,89.52
2018-01-22T11:03:01.367Z,89.26
2018-01-22T11:05:27.392Z,89.34
2018-01-22T11:07:53.405Z,89.14
2018-01-22T11:10:19.529Z,88.80
2018-01-22T11:12:45.521Z,89.50
2018-01-22T11:15:11.549Z,89.32
2018-01-22T11:17:37.604Z,89.34
2018-01-22T11:20:04.604Z,88.89
2018-01-22T11:22:30.589Z,88.84
2018-01-22T11:24:56.611Z,89.02
2018-01-22T11:27:22.648Z,88.86
2018-01-22T11:29:48.665Z,88.28
2018-01-22T11:32:14.684Z,88.08
2018-01-22T11:34:40.742Z,87.83
2018-01-22T11:37:06.769Z,87.60
2018-01-22T11:39:32.827Z,87.90
2018-01-22T11:41:58.871Z,87.73
2018-01-22T11:44:24.905Z,88.49
2018-01-22T11:46:50.940Z,88.63
2018-01-22T11:49:16.972Z,88.83
2018-01-22T11:51:43.052Z,89.64
2018-01-22T11:54:09.057Z,90.09
2018-01-22T11:56:35.052Z,90.23
2018-01-22T11:59:01.093Z,90.28
2018-01-22T12:01:27.153Z,90.14
2018-01-22T12:03:53.168Z,90.34
2018-01-22T12:06:19.231Z,90.88
2018-01-22T12:08:45.226Z,90.56
2018-01-22T12:11:11.252Z,91.03
2018-01-22T12:13:37.224Z,91.15
2018-01-22T12:16:03.263Z,91.07
2018-01-22T12:18:29.313Z,91.18
2018-01-22T12:20:55.372Z,91.42
2018-01-22T12:23:21.369Z,91.52
2018-01-22T12:25:47.403Z,91.28
2018-01-22T12:28:13.460Z,91.54
2018-01-22T12:30:39.450Z,91.23
2018-01-22T12:33:05.517Z,91.75
2018-01-22T12:35:31.489Z,91.98
2018-01-22T12:37:57.413Z,92.29
2018-01-22T12:40:23.413Z,92.13
2018-01-22T12:42:49.425Z,92.21
2018-01-22T12:45:15.472Z,91.89
2018-01-22T12:47:41.499Z,92.25
2018-01-22T12:50:07.604Z,92.18
2018-01-22T12:52:33.592Z,91.52
2018-01-22T12:54:59.560Z,91.65
2018-01-22T12:57:25.600Z,91.41
2018-01-22T12:59:51.617Z,91.14
2018-01-22T13:02:17.621Z,91.13
2018-01-22T13:04:43.641Z,90.97
2018-01-22T13:07:09.651Z,91.01
2018-01-22T13:09:35.683Z,91.51
2018-01-22T13:12:01.681Z,91.72
2018-01-22T13:14:27.817Z,91.30
2018-01-22T13:16:53.892Z,91.79
2018-01-22T13:19:19.888Z,91.75
2018-01-22T13:21:45.957Z,92.11
2018-01-22T13:24:11.962Z,92.08
2018-01-22T13:26:38.021Z,92.16
2018-01-22T13:29:04.044Z,92.38
2018-01-22T13:31:30.116Z,92.76
2018-01-22T13:33:56.281Z,93.36
2018-01-22T13:36:22.316Z,93.49
2018-01-22T13:38:48.385Z,93.52
2018-01-22T13:41:14.432Z,93.15
2018-01-22T13:43:40.436Z,93.15
2018-01-22T13:46:06.416Z,92.23
2018-01-22T13:48:32.437Z,92.61
2018-01-22T13:50:58.465Z,92.18
2018-01-22T13:53:24.506Z,92.61
2018-01-22T13:55:50.568Z,92.67
2018-01-22T13:58:16.585Z,92.69
2018-01-22T14:00:42.698Z,92.59
2018-01-22T14:03:08.712Z,93.69
2018-01-22T14:05:34.740Z,93.78
2018-01-22T14:08:00.785Z,93.47
2018-01-22T14:10:27.352Z,93.44
2018-01-22T14:12:53.532Z,93.49
2018-01-22T14:15:19.545Z,93.47
2018-01-22T14:17:45.545Z,93.41
2018-01-22T14:20:11.581Z,94.19
2018-01-22T14:22:37.633Z,93.76
2018-01-22T14:25:03.872Z,93.96
2018-01-22T14:27:29.904Z,94.18
2018-01-22T14:29:55.960Z,95.39
2018-01-22T14:32:21.985Z,95.41
2018-01-22T14:34:48.020Z,95.10
2018-01-22T14:37:14.080Z,94.77
2018-01-22T14:39:40.177Z,94.76
2018-01-22T14:42:06.242Z,94.79
2018-01-22T14:44:32.249Z,94.98
2018-01-22T14:46:58.256Z,95.20
2018-01-22T14:49:24.287Z,94.82
2018-01-22T14:51:50.332Z,95.03
2018-01-22T14:54:16.360Z,94.36
2018-01-22T14:56:42.397Z,94.56
2018-01-22T14:59:08.487Z,95.13
2018-01-22T15:01:34.496Z,95.83
2018-01-22T15:04:00.568Z,96.42
2018-01-22T15:06:26.702Z,96.88
2018-01-22T15:08:52.761Z,96.74
2018-01-22T15:11:18.801Z,96.75
2018-01-22T15:13:44.828Z,96.75
2018-01-22T15:16:10.881Z,96.13
2018-01-22T15:18:36.892Z,96.87
2018-01-22T15:21:02.969Z,96.97
2018-01-22T15:23:29.076Z,97.03
2018-01-22T15:25:55.127Z,96.36
2018-01-22T15:28:21.197Z,95.89
2018-01-22T15:30:47.324Z,96.07
2018-01-22T15:33:13.364Z,96.42
2018-01-22T15:35:39.453Z,96.55
2018-01-22T15:38:05.460Z,96.73
2018-01-22T15:40:31.556Z,96.37
2018-01-22T15:42:57.535Z,96.43
2018-01-22T15:45:23.629Z,96.48
2018-01-22T15:47:49.640Z,96.14
2018-01-22T15:50:15.704Z,96.24
2018-01-22T15:52:41.708Z,96.23
2018-01-22T15:55:07.755Z,96.58
2018-01-22T15:57:33.837Z,96.73
2018-01-22T15:59:59.885Z,96.76
2018-01-22T16:02:25.921Z,96.94
2018-01-22T16:04:52.022Z,97.13
2018-01-22T16:07:18.060Z,97.11
2018-01-22T16:09:44.104Z,97.29
2018-01-22T16:12:10.113Z,97.35
2018-01-22T16:14:36.135Z,97.28
2018-01-22T16:17:02.196Z,97.74
2018-01-22T16:19:28.232Z,97.74
2018-01-22T16:21:54.253Z,97.81
2018-01-22T16:24:20.284Z,98.27
2018-01-22T16:26:46.354Z,98.33
2018-01-22T16:29:12.456Z,98.26
2018-01-22T16:31:38.517Z,98.45
2018-01-22T16:34:04.641Z,98.51
2018-01-22T16:36:30.786Z,98.50
2018-01-22T16:38:56.821Z,98.50
2018-01-22T16:41:22.930Z,98.46
2018-01-22T16:43:49.021Z,98.69
2018-01-22T16:46:15.046Z,98.49
2018-01-22T16:48:41.081Z,97.95
2018-01-22T16:51:07.163Z,97.93
2018-01-22T16:53:33.243Z,98.03
2018-01-22T16:55:59.334Z,98.41
2018-01-22T16:58:25.391Z,98.46
2018-01-22T17:00:51.465Z,98.73
2018-01-22T17:03:17.512Z,98.58
2018-01-22T17:05:43.643Z,98.67
2018-01-22T17:08:09.808Z,98.64
2018-01-22T17:10:35.848Z,98.63
2018-01-22T17:13:01.967Z,98.56
2018-01-22T17:15:28.032Z,98.57
2018-01-22T17:17:54.105Z,98.71
2018-01-22T17:20:20.176Z,98.92
2018-01-22T17:22:46.285Z,98.71
2018-01-22T17:25:12.328Z,98.66
2018-01-22T17:27:38.436Z,98.72
2018-01-22T17:30:04.689Z,98.72
2018-01-22T17:32:30.864Z,98.61
2018-01-22T17:34:56.890Z,98.66
2018-01-22T17:37:23.036Z,98.68
2018-01-22T17:39:49.068Z,98.64
2018-01-22T17:42:15.129Z,98.76
2018-01-22T17:44:41.238Z,98.92
2018-01-22T17:47:07.311Z,99.15
2018-01-22T17:49:33.398Z,99.23
2018-01-22T17:51:59.428Z,99.20
2018-01-22T17:54:25.482Z,99.31
2018-01-22T17:56:51.579Z,99.37
2018-01-22T17:59:17.673Z,99.19
2018-01-22T18:01:43.777Z,99.16
2018-01-22T18:04:09.822Z,99.21
2018-01-22T18:06:35.908Z,99.19
2018-01-22T18:09:01.985Z,99.19
2018-01-22T18:11:28.122Z,99.33
2018-01-22T18:13:54.174Z,99.37
2018-01-22T18:16:20.268Z,99.33
2018-01-22T18:18:46.837Z,99.63
2018-01-22T18:21:12.895Z,99.76
2018-01-22T18:23:39.020Z,99.76
2018-01-22T18:26:05.076Z,99.76
2018-01-22T18:28:31.126Z,99.72
2018-01-22T18:30:57.279Z,99.79
2018-01-22T18:33:23.356Z,99.58
2018-01-22T18:35:49.394Z,99.43
2018-01-22T18:38:15.454Z,98.98
2018-01-22T18:40:41.465Z,98.56
2018-01-22T18:43:07.531Z,98.71
2018-01-22T18:45:33.621Z,98.81
2018-01-22T18:47:59.793Z,98.87
2018-01-22T18:50:25.852Z,99.11
2018-01-22T18:52:52.102Z,99.48
2018-01-22T18:55:18.442Z,99.59
2018-01-22T18:57:44.816Z,99.61
2018-01-22T19:00:11.039Z,99.64
2018-01-22T19:02:37.082Z,99.73
2018-01-22T19:05:03.389Z,99.80
2018-01-22T19:07:29.434Z,99.78
2018-01-22T19:09:55.495Z,99.61
2018-01-22T19:12:21.665Z,99.41
2018-01-22T19:14:47.712Z,99.29
2018-01-22T19:17:13.771Z,98.99
2018-01-22T19:19:39.953Z,98.90
2018-01-22T19:22:05.993Z,98.95
2018-01-22T19:24:32.425Z,98.97
2018-01-22T19:26:58.480Z,98.40
2018-01-22T19:29:24.542Z,98.20
2018-01-22T19:31:50.640Z,98.52
2018-01-22T19:34:16.717Z,98.88
2018-01-22T19:36:42.870Z,99.22
2018-01-22T19:39:09.038Z,99.46
2018-01-22T19:41:35.184Z,99.46
2018-01-22T19:44:02.175Z,99.62
2018-01-22T19:46:28.238Z,99.82
2018-01-22T19:48:54.371Z,99.67
2018-01-22T19:51:20.520Z,99.59
2018-01-22T19:53:46.558Z,99.78
2018-01-22T19:56:12.639Z,99.92
2018-01-22T19:58:38.765Z,99.85
2018-01-22T20:01:04.818Z,99.96
2018-01-22T20:03:30.908Z,99.90
2018-01-22T20:05:57.075Z,99.77
2018-01-22T20:08:23.209Z,99.65
2018-01-22T20:10:49.218Z,99.61
2018-01-22T20:13:15.300Z,99.32
2018-01-22T20:15:41.396Z,98.93
2018-01-22T20:18:07.433Z,98.97
2018-01-22T20:20:33.464Z,99.27
2018-01-22T20:22:59.480Z,99.18
2018-01-22T20:25:25.569Z,98.67
2018-01-22T20:27:51.664Z,98.35
2018-01-22T20:30:17.704Z,97.73
2018-01-22T20:32:43.805Z,97.40
2018-01-22T20:35:10.300Z,97.25
2018-01-22T20:37:36.426Z,97.85
2018-01-22T20:40:02.459Z,98.11
2018-01-22T20:42:28.622Z,97.58
2018-01-22T20:44:54.640Z,97.46
2018-01-22T20:47:20.738Z,97.49
2018-01-22T20:49:46.772Z,97.08
2018-01-22T20:52:12.773Z,97.89
2018-01-22T20:54:38.794Z,98.04
2018-01-22T20:57:04.836Z,97.84
2018-01-22T20:59:30.861Z,97.33
2018-01-22T21:01:56.911Z,97.40
2018-01-22T21:04:23.005Z,97.81
2018-01-22T21:06:49.069Z,97.24
2018-01-22T21:09:15.126Z,96.89
2018-01-22T21:11:41.200Z,96.79
2018-01-22T21:14:07.659Z,96.77
2018-01-22T21:16:33.689Z,97.19
2018-01-22T21:18:59.688Z,97.80
2018-01-22T21:21:25.664Z,98.06
2018-01-22T21:23:51.745Z,98.20
2018-01-22T21:26:17.740Z,98.25
2018-01-22T21:28:43.836Z,98.16
2018-01-22T21:31:09.868Z,98.10
2018-01-22T21:33:36.312Z,97.65
2018-01-22T21:36:02.376Z,97.71
2018-01-22T21:38:28.336Z,97.88
2018-01-22T21:40:54.384Z,98.02
2018-01-22T21:43:20.389Z,97.82
2018-01-22T21:45:46.401Z,97.20
2018-01-22T21:48:12.443Z,97.17
2018-01-22T21:50:38.458Z,97.64
2018-01-22T21:53:04.410Z,97.44
2018-01-22T21:55:30.408Z,97.06
2018-01-22T21:57:56.476Z,96.67
2018-01-22T22:00:22.476Z,96.87
2018-01-22T22:02:48.547Z,97.32
2018-01-22T22:05:14.624Z,97.59
2018-01-22T22:07:40.658Z,97.85
2018-01-22T22:10:06.689Z,97.85
2018-01-22T22:12:32.712Z,97.37
2018-01-22T22:14:58.804Z,96.99
2018-01-22T22:17:24.876Z,96.63
2018-01-22T22:19:51.610Z,96.98
2018-01-22T22:22:17.592Z,97.20
2018-01-22T22:24:43.637Z,97.94
2018-01-22T22:27:09.757Z,98.01
2018-01-22T22:29:35.769Z,98.13
2018-01-22T22:32:01.850Z,97.56
2018-01-22T22:34:27.910Z,97.19
2018-01-22T22:36:53.924Z,96.89
2018-01-22T22:39:19.958Z,96.87
2018-01-22T22:41:45.996Z,97.60
2018-01-22T22:44:12.068Z,98.09
2018-01-22T22:46:38.100Z,98.27
2018-01-22T22:49:04.104Z,98.30
2018-01-22T22:51:30.147Z,97.76
2018-01-22T22:53:56.176Z,97.54
2018-01-22T22:56:22.936Z,97.43
2018-01-22T22:58:49.062Z,97.05
2018-01-22T23:01:15.029Z,96.64
2018-01-22T23:03:41.032Z,96.55
2018-01-22T23:06:07.036Z,96.82
2018-01-22T23:08:33.010Z,96.85
2018-01-22T23:10:59.030Z,96.68
2018-01-22T23:13:25.038Z,96.59
2018-01-22T23:15:51.063Z,96.79
2018-01-22T23:18:17.116Z,96.77
2018-01-22T23:20:43.173Z,96.62
2018-01-22T23:23:09.123Z,96.59
2018-01-22T23:25:35.160Z,96.55
2018-01-22T23:28:01.140Z,96.44
2018-01-22T23:30:27.248Z,96.58
2018-01-22T23:32:53.232Z,96.85
2018-01-22T23:35:19.260Z,97.31
2018-01-22T23:37:45.783Z,96.93
2018-01-22T23:40:11.835Z,96.62
2018-01-22T23:42:37.844Z,96.48
2018-01-22T23:45:03.877Z,96.45
2018-01-22T23:47:29.868Z,96.74
2018-01-22T23:49:55.978Z,96.95
2018-01-22T23:52:21.973Z,97.40
2018-01-22T23:54:48.001Z,97.66
2018-01-22T23:57:14.049Z,97.93
2018-01-22T23:59:40.076Z,97.63
